sensor_id;sensor_type;location;lat;lon;timestamp;temperature;humidity
50606;DHT22;36557;53.572;10.170;2023-11-21T07:48:05;6.20;99.90
50606;DHT22;36557;53.572;10.170;2023-11-21T07:50:32;6.20;99.90
50606;DHT22;36557;53.572;10.170;2023-11-21T07:52:58;6.20;99.90
50606;DHT22;36557;53.572;10.170;2023-11-21T07:55:23;6.20;99.90
50606;DHT22;36557;53.572;10.170;2023-11-21T07:57:50;6.20;99.90
50606;DHT22;36557;53.572;10.170;2023-11-21T08:00:16;6.20;99.90
50606;DHT22;36557;53.572;10.170;2023-11-21T08:02:42;6.20;99.90
50606;DHT22;36557;53.572;10.170;2023-11-21T08:05:08;6.30;99.90
50606;DHT22;36557;53.572;10.170;2023-11-21T08:07:34;6.30;99.90
50606;DHT22;36557;53.572;10.170;2023-11-21T08:10:00;6.40;99.90
50606;DHT22;36557;53.572;10.170;2023-11-21T08:12:26;6.30;99.90
50606;DHT22;36557;53.572;10.170;2023-11-21T08:14:53;6.40;99.90
50606;DHT22;36557;53.572;10.170;2023-11-21T08:17:19;6.40;99.90
50606;DHT22;36557;53.572;10.170;2023-11-21T08:19:46;6.40;99.90
50606;DHT22;36557;53.572;10.170;2023-11-21T08:22:15;6.50;99.90
50606;DHT22;36557;53.572;10.170;2023-11-21T08:24:43;6.50;99.90
50606;DHT22;36557;53.572;10.170;2023-11-21T08:27:09;6.50;99.90
50606;DHT22;36557;53.572;10.170;2023-11-21T08:29:35;6.40;99.90
50606;DHT22;36557;53.572;10.170;2023-11-21T08:32:02;6.50;99.90
50606;DHT22;36557;53.572;10.170;2023-11-21T08:34:28;6.50;99.90
50606;DHT22;36557;53.572;10.170;2023-11-21T08:36:54;6.40;99.90
50606;DHT22;36557;53.572;10.170;2023-11-21T08:39:21;6.50;99.90
50606;DHT22;36557;53.572;10.170;2023-11-21T08:41:50;6.40;99.90
50606;DHT22;36557;53.572;10.170;2023-11-21T08:44:16;6.40;99.90
50606;DHT22;36557;53.572;10.170;2023-11-21T08:46:44;6.50;99.90
50606;DHT22;36557;53.572;10.170;2023-11-21T08:49:11;6.50;99.90
50606;DHT22;36557;53.572;10.170;2023-11-21T08:51:37;6.50;99.90
50606;DHT22;36557;53.572;10.170;2023-11-21T08:54:04;6.50;99.90
50606;DHT22;36557;53.572;10.170;2023-11-21T08:56:35;6.50;99.90
50606;DHT22;36557;53.572;10.170;2023-11-21T08:59:01;6.40;99.90
50606;DHT22;36557;53.572;10.170;2023-11-21T09:01:31;6.40;99.90
50606;DHT22;36557;53.572;10.170;2023-11-21T09:03:57;6.50;99.90
50606;DHT22;36557;53.572;10.170;2023-11-21T09:06:24;6.50;99.90
50606;DHT22;36557;53.572;10.170;2023-11-21T09:08:50;6.50;99.90
50606;DHT22;36557;53.572;10.170;2023-11-21T09:11:16;6.40;99.90
50606;DHT22;36557;53.572;10.170;2023-11-21T09:13:42;6.50;99.90
50606;DHT22;36557;53.572;10.170;2023-11-21T09:16:08;6.50;99.90
50606;DHT22;36557;53.572;10.170;2023-11-21T09:18:34;6.50;99.90
50606;DHT22;36557;53.572;10.170;2023-11-21T09:20:59;6.60;99.90
50606;DHT22;36557;53.572;10.170;2023-11-21T09:23:25;6.70;99.90
50606;DHT22;36557;53.572;10.170;2023-11-21T09:25:51;6.70;99.90
50606;DHT22;36557;53.572;10.170;2023-11-21T09:28:17;6.80;99.90
50606;DHT22;36557;53.572;10.170;2023-11-21T09:30:43;6.80;99.90
50606;DHT22;36557;53.572;10.170;2023-11-21T09:33:09;6.70;99.90
50606;DHT22;36557;53.572;10.170;2023-11-21T09:35:37;6.70;99.90
50606;DHT22;36557;53.572;10.170;2023-11-21T09:38:04;6.70;99.90
50606;DHT22;36557;53.572;10.170;2023-11-21T09:40:35;6.80;99.90
50606;DHT22;36557;53.572;10.170;2023-11-21T09:43:09;6.80;99.90
50606;DHT22;36557;53.572;10.170;2023-11-21T09:45:45;6.80;99.90
50606;DHT22;36557;53.572;10.170;2023-11-21T09:48:13;6.80;99.90
50606;DHT22;36557;53.572;10.170;2023-11-21T09:50:42;6.90;99.90
50606;DHT22;36557;53.572;10.170;2023-11-21T09:53:21;6.90;99.90
50606;DHT22;36557;53.572;10.170;2023-11-21T09:55:51;6.80;99.90
50606;DHT22;36557;53.572;10.170;2023-11-21T09:58:18;6.80;99.90
50606;DHT22;36557;53.572;10.170;2023-11-21T10:00:48;6.90;99.90
50606;DHT22;36557;53.572;10.170;2023-11-21T10:03:15;6.90;99.90
50606;DHT22;36557;53.572;10.170;2023-11-21T10:05:45;7.00;99.90
50606;DHT22;36557;53.572;10.170;2023-11-21T10:08:15;7.00;99.90
50606;DHT22;36557;53.572;10.170;2023-11-21T10:10:45;6.90;99.90
50606;DHT22;36557;53.572;10.170;2023-11-21T10:13:14;6.90;99.90
50606;DHT22;36557;53.572;10.170;2023-11-21T10:15:43;7.00;99.90
50606;DHT22;36557;53.572;10.170;2023-11-21T10:18:14;7.00;99.90
50606;DHT22;36557;53.572;10.170;2023-11-21T10:20:41;7.10;99.90
50606;DHT22;36557;53.572;10.170;2023-11-21T10:23:12;7.10;99.90
50606;DHT22;36557;53.572;10.170;2023-11-21T10:25:38;7.20;99.90
50606;DHT22;36557;53.572;10.170;2023-11-21T10:28:04;7.10;99.90
50606;DHT22;36557;53.572;10.170;2023-11-21T10:30:37;7.30;99.90
50606;DHT22;36557;53.572;10.170;2023-11-21T10:33:04;7.40;99.90
50606;DHT22;36557;53.572;10.170;2023-11-21T10:35:59;7.40;99.90
50606;DHT22;36557;53.572;10.170;2023-11-21T10:38:26;7.20;99.90
50606;DHT22;36557;53.572;10.170;2023-11-21T10:40:54;7.30;99.90
50606;DHT22;36557;53.572;10.170;2023-11-21T10:43:25;7.10;99.90
50606;DHT22;36557;53.572;10.170;2023-11-21T10:45:50;7.10;99.90
50606;DHT22;36557;53.572;10.170;2023-11-21T10:48:16;7.00;99.90
50606;DHT22;36557;53.572;10.170;2023-11-21T10:50:46;7.10;99.90
50606;DHT22;36557;53.572;10.170;2023-11-21T10:53:12;7.10;99.90
50606;DHT22;36557;53.572;10.170;2023-11-21T10:55:38;7.00;99.90
50606;DHT22;36557;53.572;10.170;2023-11-21T10:58:04;6.90;99.90
50606;DHT22;36557;53.572;10.170;2023-11-21T11:00:32;6.90;99.90
50606;DHT22;36557;53.572;10.170;2023-11-21T11:02:59;6.90;99.90
50606;DHT22;36557;53.572;10.170;2023-11-21T11:05:27;6.90;99.90
50606;DHT22;36557;53.572;10.170;2023-11-21T11:08:07;6.90;99.90
50606;DHT22;36557;53.572;10.170;2023-11-21T11:10:33;6.90;99.90
50606;DHT22;36557;53.572;10.170;2023-11-21T11:13:00;6.90;99.90
50606;DHT22;36557;53.572;10.170;2023-11-21T11:15:27;6.90;99.90
50606;DHT22;36557;53.572;10.170;2023-11-21T11:17:54;6.90;99.90
50606;DHT22;36557;53.572;10.170;2023-11-21T11:20:24;7.00;99.90
50606;DHT22;36557;53.572;10.170;2023-11-21T11:28:32;7.00;99.90
50606;DHT22;36557;53.572;10.170;2023-11-21T11:33:48;7.10;99.90
50606;DHT22;36557;53.572;10.170;2023-11-21T11:36:29;7.10;99.90
50606;DHT22;36557;53.572;10.170;2023-11-21T11:38:55;7.10;99.90
50606;DHT22;36557;53.572;10.170;2023-11-21T11:41:30;7.20;99.90
50606;DHT22;36557;53.572;10.170;2023-11-21T11:43:58;7.10;99.90
50606;DHT22;36557;53.572;10.170;2023-11-21T11:46:44;7.10;99.90
50606;DHT22;36557;53.572;10.170;2023-11-21T11:49:27;7.00;99.90
50606;DHT22;36557;53.572;10.170;2023-11-21T11:54:56;6.80;99.90
50606;DHT22;36557;53.572;10.170;2023-11-21T11:57:25;6.90;99.90
50606;DHT22;36557;53.572;10.170;2023-11-21T12:00:10;6.80;99.90
50606;DHT22;36557;53.572;10.170;2023-11-21T12:02:38;6.80;99.90
50606;DHT22;36557;53.572;10.170;2023-11-21T12:05:12;6.90;99.90
50606;DHT22;36557;53.572;10.170;2023-11-21T12:07:47;7.00;99.90
50606;DHT22;36557;53.572;10.170;2023-11-21T12:10:15;7.00;99.90
50606;DHT22;36557;53.572;10.170;2023-11-21T12:12:48;7.00;99.90
50606;DHT22;36557;53.572;10.170;2023-11-21T12:15:14;7.00;99.90
50606;DHT22;36557;53.572;10.170;2023-11-21T12:17:43;7.00;99.90
50606;DHT22;36557;53.572;10.170;2023-11-21T12:20:10;7.00;99.90
50606;DHT22;36557;53.572;10.170;2023-11-21T12:22:46;7.00;99.90
50606;DHT22;36557;53.572;10.170;2023-11-21T12:25:19;6.80;99.90
50606;DHT22;36557;53.572;10.170;2023-11-21T12:27:55;6.70;99.90
50606;DHT22;36557;53.572;10.170;2023-11-21T12:30:23;6.70;99.90
50606;DHT22;36557;53.572;10.170;2023-11-21T12:32:53;6.70;99.90
50606;DHT22;36557;53.572;10.170;2023-11-21T12:35:21;6.60;99.90
50606;DHT22;36557;53.572;10.170;2023-11-21T12:37:48;6.60;99.90
50606;DHT22;36557;53.572;10.170;2023-11-21T12:40:15;6.60;99.90
50606;DHT22;36557;53.572;10.170;2023-11-21T12:42:42;6.70;99.90
50606;DHT22;36557;53.572;10.170;2023-11-21T12:45:08;6.70;99.90
50606;DHT22;36557;53.572;10.170;2023-11-21T12:47:35;6.70;99.90
50606;DHT22;36557;53.572;10.170;2023-11-21T12:50:02;6.60;99.90
50606;DHT22;36557;53.572;10.170;2023-11-21T12:52:31;6.50;99.90
50606;DHT22;36557;53.572;10.170;2023-11-21T12:54:58;6.50;99.90
50606;DHT22;36557;53.572;10.170;2023-11-21T12:57:27;6.50;99.90
50606;DHT22;36557;53.572;10.170;2023-11-21T12:59:57;6.60;99.90
50606;DHT22;36557;53.572;10.170;2023-11-21T13:02:26;6.60;99.90
50606;DHT22;36557;53.572;10.170;2023-11-21T13:04:53;6.50;99.90
50606;DHT22;36557;53.572;10.170;2023-11-21T13:07:19;6.50;99.90
50606;DHT22;36557;53.572;10.170;2023-11-21T13:09:45;6.40;99.90
50606;DHT22;36557;53.572;10.170;2023-11-21T13:12:11;6.50;99.90
50606;DHT22;36557;53.572;10.170;2023-11-21T13:14:40;6.50;99.90
50606;DHT22;36557;53.572;10.170;2023-11-21T13:17:05;6.50;99.90
50606;DHT22;36557;53.572;10.170;2023-11-21T13:19:31;6.40;99.90
50606;DHT22;36557;53.572;10.170;2023-11-21T13:21:57;6.40;99.90
50606;DHT22;36557;53.572;10.170;2023-11-21T13:24:24;6.40;99.90
50606;DHT22;36557;53.572;10.170;2023-11-21T13:26:51;6.40;99.90
50606;DHT22;36557;53.572;10.170;2023-11-21T13:29:17;6.30;99.90
50606;DHT22;36557;53.572;10.170;2023-11-21T13:31:43;6.30;99.90
50606;DHT22;36557;53.572;10.170;2023-11-21T13:34:08;6.30;99.90
50606;DHT22;36557;53.572;10.170;2023-11-21T13:36:34;6.30;99.90
50606;DHT22;36557;53.572;10.170;2023-11-21T13:39:00;6.20;99.90
50606;DHT22;36557;53.572;10.170;2023-11-21T13:41:33;6.20;99.90
50606;DHT22;36557;53.572;10.170;2023-11-21T13:43:59;6.30;99.90
50606;DHT22;36557;53.572;10.170;2023-11-21T13:46:42;6.20;99.90
50606;DHT22;36557;53.572;10.170;2023-11-21T13:49:07;6.20;99.90
50606;DHT22;36557;53.572;10.170;2023-11-21T13:51:36;6.20;99.90
50606;DHT22;36557;53.572;10.170;2023-11-21T13:54:09;6.10;99.90
50606;DHT22;36557;53.572;10.170;2023-11-21T13:56:36;6.10;99.90
50606;DHT22;36557;53.572;10.170;2023-11-21T13:59:02;6.10;99.90
50606;DHT22;36557;53.572;10.170;2023-11-21T14:01:50;6.10;99.90
50606;DHT22;36557;53.572;10.170;2023-11-21T14:04:21;6.00;99.90
50606;DHT22;36557;53.572;10.170;2023-11-21T14:07:07;6.00;99.90
50606;DHT22;36557;53.572;10.170;2023-11-21T14:09:57;6.00;99.90
50606;DHT22;36557;53.572;10.170;2023-11-21T14:12:24;5.90;99.90
50606;DHT22;36557;53.572;10.170;2023-11-21T14:14:50;6.00;99.90
50606;DHT22;36557;53.572;10.170;2023-11-21T14:17:15;5.90;99.90
50606;DHT22;36557;53.572;10.170;2023-11-21T14:19:41;5.90;99.90
50606;DHT22;36557;53.572;10.170;2023-11-21T14:22:11;5.90;99.90
50606;DHT22;36557;53.572;10.170;2023-11-21T14:24:37;5.80;99.90
50606;DHT22;36557;53.572;10.170;2023-11-21T14:27:03;5.80;99.90
50606;DHT22;36557;53.572;10.170;2023-11-21T14:29:31;5.80;99.90
50606;DHT22;36557;53.572;10.170;2023-11-21T14:32:02;5.80;99.90
50606;DHT22;36557;53.572;10.170;2023-11-21T14:34:28;5.70;99.90
50606;DHT22;36557;53.572;10.170;2023-11-21T14:36:53;5.70;99.90
50606;DHT22;36557;53.572;10.170;2023-11-21T14:39:20;5.70;99.90
50606;DHT22;36557;53.572;10.170;2023-11-21T14:41:49;5.70;99.90
50606;DHT22;36557;53.572;10.170;2023-11-21T14:44:15;5.60;99.90
50606;DHT22;36557;53.572;10.170;2023-11-21T14:46:41;5.60;99.90
50606;DHT22;36557;53.572;10.170;2023-11-21T14:49:12;5.60;99.90
50606;DHT22;36557;53.572;10.170;2023-11-21T14:51:52;5.60;99.90
50606;DHT22;36557;53.572;10.170;2023-11-21T14:54:49;5.60;99.90
50606;DHT22;36557;53.572;10.170;2023-11-21T14:57:25;5.60;99.90
50606;DHT22;36557;53.572;10.170;2023-11-21T14:59:52;5.60;99.90
50606;DHT22;36557;53.572;10.170;2023-11-21T15:02:23;5.60;99.90
50606;DHT22;36557;53.572;10.170;2023-11-21T15:05:09;5.50;99.90
50606;DHT22;36557;53.572;10.170;2023-11-21T15:07:40;5.50;99.90
50606;DHT22;36557;53.572;10.170;2023-11-21T15:10:06;5.50;99.90
50606;DHT22;36557;53.572;10.170;2023-11-21T15:12:36;5.50;99.90
50606;DHT22;36557;53.572;10.170;2023-11-21T15:15:04;5.30;99.90
50606;DHT22;36557;53.572;10.170;2023-11-21T15:17:33;5.30;99.90
50606;DHT22;36557;53.572;10.170;2023-11-21T15:20:00;5.30;99.90
50606;DHT22;36557;53.572;10.170;2023-11-21T15:22:25;5.20;99.90
50606;DHT22;36557;53.572;10.170;2023-11-21T15:24:53;5.10;99.90
50606;DHT22;36557;53.572;10.170;2023-11-21T15:27:19;5.10;99.90
50606;DHT22;36557;53.572;10.170;2023-11-21T15:29:45;5.10;99.90
50606;DHT22;36557;53.572;10.170;2023-11-21T15:32:12;5.10;99.90
50606;DHT22;36557;53.572;10.170;2023-11-21T15:34:38;5.10;99.90
50606;DHT22;36557;53.572;10.170;2023-11-21T15:37:06;5.10;99.90
50606;DHT22;36557;53.572;10.170;2023-11-21T15:39:35;5.10;99.90
50606;DHT22;36557;53.572;10.170;2023-11-21T15:42:00;5.10;99.90
50606;DHT22;36557;53.572;10.170;2023-11-21T15:44:26;5.10;99.90
50606;DHT22;36557;53.572;10.170;2023-11-21T15:46:53;5.00;99.90
50606;DHT22;36557;53.572;10.170;2023-11-21T15:49:19;5.00;99.90
50606;DHT22;36557;53.572;10.170;2023-11-21T15:51:50;5.00;99.90
50606;DHT22;36557;53.572;10.170;2023-11-21T15:54:21;5.00;99.90
50606;DHT22;36557;53.572;10.170;2023-11-21T15:56:47;5.00;99.90
50606;DHT22;36557;53.572;10.170;2023-11-21T15:59:14;5.00;99.90
50606;DHT22;36557;53.572;10.170;2023-11-21T16:01:40;5.00;99.90
50606;DHT22;36557;53.572;10.170;2023-11-21T16:04:13;5.00;99.90
50606;DHT22;36557;53.572;10.170;2023-11-21T16:06:45;5.00;99.90
50606;DHT22;36557;53.572;10.170;2023-11-21T16:09:13;4.90;99.90
50606;DHT22;36557;53.572;10.170;2023-11-21T16:11:51;4.90;99.90
50606;DHT22;36557;53.572;10.170;2023-11-21T16:14:21;4.90;99.90
50606;DHT22;36557;53.572;10.170;2023-11-21T16:16:51;4.80;99.90
50606;DHT22;36557;53.572;10.170;2023-11-21T16:19:17;4.70;99.90
50606;DHT22;36557;53.572;10.170;2023-11-21T16:21:48;4.70;99.90
50606;DHT22;36557;53.572;10.170;2023-11-21T16:24:14;4.70;99.90
50606;DHT22;36557;53.572;10.170;2023-11-21T16:26:44;4.70;99.90
50606;DHT22;36557;53.572;10.170;2023-11-21T16:29:11;4.70;99.90
50606;DHT22;36557;53.572;10.170;2023-11-21T16:31:38;4.70;99.90
50606;DHT22;36557;53.572;10.170;2023-11-21T16:34:12;4.70;99.90
50606;DHT22;36557;53.572;10.170;2023-11-21T16:36:39;4.70;99.90
50606;DHT22;36557;53.572;10.170;2023-11-21T16:39:05;4.80;99.90
50606;DHT22;36557;53.572;10.170;2023-11-21T16:41:31;4.70;99.90
50606;DHT22;36557;53.572;10.170;2023-11-21T16:43:56;4.80;99.90
50606;DHT22;36557;53.572;10.170;2023-11-21T16:46:22;4.80;99.90
50606;DHT22;36557;53.572;10.170;2023-11-21T16:48:48;4.80;99.90
50606;DHT22;36557;53.572;10.170;2023-11-21T16:51:17;4.90;99.90
50606;DHT22;36557;53.572;10.170;2023-11-21T16:53:43;4.90;99.90
50606;DHT22;36557;53.572;10.170;2023-11-21T16:56:09;4.80;99.90
50606;DHT22;36557;53.572;10.170;2023-11-21T16:58:36;4.70;99.90
50606;DHT22;36557;53.572;10.170;2023-11-21T17:01:03;4.60;99.90
50606;DHT22;36557;53.572;10.170;2023-11-21T17:03:29;4.50;99.90
50606;DHT22;36557;53.572;10.170;2023-11-21T17:05:55;4.50;99.90
50606;DHT22;36557;53.572;10.170;2023-11-21T17:08:21;4.40;99.90
50606;DHT22;36557;53.572;10.170;2023-11-21T17:10:47;4.40;99.90
50606;DHT22;36557;53.572;10.170;2023-11-21T17:13:15;4.40;99.90
50606;DHT22;36557;53.572;10.170;2023-11-21T17:15:44;4.40;99.90
50606;DHT22;36557;53.572;10.170;2023-11-21T17:18:11;4.40;99.90
50606;DHT22;36557;53.572;10.170;2023-11-21T17:20:37;4.50;99.90
50606;DHT22;36557;53.572;10.170;2023-11-21T17:23:03;4.40;99.90
50606;DHT22;36557;53.572;10.170;2023-11-21T17:25:30;4.40;99.90
50606;DHT22;36557;53.572;10.170;2023-11-21T17:27:59;4.40;99.90
50606;DHT22;36557;53.572;10.170;2023-11-21T17:30:25;4.40;99.90
50606;DHT22;36557;53.572;10.170;2023-11-21T17:32:52;4.40;99.90
50606;DHT22;36557;53.572;10.170;2023-11-21T17:35:18;4.30;99.90
50606;DHT22;36557;53.572;10.170;2023-11-21T17:37:44;4.30;99.90
50606;DHT22;36557;53.572;10.170;2023-11-21T17:40:10;4.30;99.90
50606;DHT22;36557;53.572;10.170;2023-11-21T17:42:36;4.30;99.90
50606;DHT22;36557;53.572;10.170;2023-11-21T17:45:03;4.30;99.90
50606;DHT22;36557;53.572;10.170;2023-11-21T17:47:29;4.30;99.90
50606;DHT22;36557;53.572;10.170;2023-11-21T17:49:56;4.30;99.90
50606;DHT22;36557;53.572;10.170;2023-11-21T17:52:22;4.30;99.90
50606;DHT22;36557;53.572;10.170;2023-11-21T17:54:50;4.30;99.90
50606;DHT22;36557;53.572;10.170;2023-11-21T17:57:15;4.30;99.90
50606;DHT22;36557;53.572;10.170;2023-11-21T17:59:41;4.20;99.90
50606;DHT22;36557;53.572;10.170;2023-11-21T18:02:08;4.20;99.90
50606;DHT22;36557;53.572;10.170;2023-11-21T18:04:35;4.20;99.90
50606;DHT22;36557;53.572;10.170;2023-11-21T18:07:03;4.20;99.90
50606;DHT22;36557;53.572;10.170;2023-11-21T18:09:30;4.20;99.90
50606;DHT22;36557;53.572;10.170;2023-11-21T18:11:56;4.20;99.90
50606;DHT22;36557;53.572;10.170;2023-11-21T18:14:22;4.20;99.90
50606;DHT22;36557;53.572;10.170;2023-11-21T18:16:47;4.10;99.90
50606;DHT22;36557;53.572;10.170;2023-11-21T18:19:14;4.00;99.90
50606;DHT22;36557;53.572;10.170;2023-11-21T18:21:40;4.00;99.90
50606;DHT22;36557;53.572;10.170;2023-11-21T18:24:07;4.00;99.90
50606;DHT22;36557;53.572;10.170;2023-11-21T18:26:34;3.90;99.90
50606;DHT22;36557;53.572;10.170;2023-11-21T18:29:00;3.90;99.90
50606;DHT22;36557;53.572;10.170;2023-11-21T18:31:26;3.90;99.90
50606;DHT22;36557;53.572;10.170;2023-11-21T18:33:52;3.90;99.90
50606;DHT22;36557;53.572;10.170;2023-11-21T18:36:18;3.90;99.90
50606;DHT22;36557;53.572;10.170;2023-11-21T18:38:45;4.00;99.90
50606;DHT22;36557;53.572;10.170;2023-11-21T18:41:11;4.00;99.90
50606;DHT22;36557;53.572;10.170;2023-11-21T18:43:39;4.00;99.90
50606;DHT22;36557;53.572;10.170;2023-11-21T18:46:06;4.00;99.90
50606;DHT22;36557;53.572;10.170;2023-11-21T18:48:32;3.90;99.90
50606;DHT22;36557;53.572;10.170;2023-11-21T18:50:57;3.90;99.90
50606;DHT22;36557;53.572;10.170;2023-11-21T18:53:23;3.90;99.90
50606;DHT22;36557;53.572;10.170;2023-11-21T18:55:50;3.90;99.90
50606;DHT22;36557;53.572;10.170;2023-11-21T18:58:16;4.00;99.90
50606;DHT22;36557;53.572;10.170;2023-11-21T19:00:42;4.00;99.90
50606;DHT22;36557;53.572;10.170;2023-11-21T19:03:08;3.90;99.90
50606;DHT22;36557;53.572;10.170;2023-11-21T19:05:34;3.90;99.90
50606;DHT22;36557;53.572;10.170;2023-11-21T19:08:00;4.00;99.90
50606;DHT22;36557;53.572;10.170;2023-11-21T19:10:26;4.00;99.90
50606;DHT22;36557;53.572;10.170;2023-11-21T19:12:55;4.00;99.90
50606;DHT22;36557;53.572;10.170;2023-11-21T19:15:21;4.00;99.90
50606;DHT22;36557;53.572;10.170;2023-11-21T19:17:47;4.00;99.90
50606;DHT22;36557;53.572;10.170;2023-11-21T19:20:13;3.90;99.90
50606;DHT22;36557;53.572;10.170;2023-11-21T19:22:39;4.00;99.90
50606;DHT22;36557;53.572;10.170;2023-11-21T19:25:06;3.90;99.90
50606;DHT22;36557;53.572;10.170;2023-11-21T19:27:37;3.90;99.90
50606;DHT22;36557;53.572;10.170;2023-11-21T19:30:03;3.90;99.90
50606;DHT22;36557;53.572;10.170;2023-11-21T19:32:29;3.90;99.90
50606;DHT22;36557;53.572;10.170;2023-11-21T19:34:55;3.90;99.90
50606;DHT22;36557;53.572;10.170;2023-11-21T19:37:21;3.90;99.90
50606;DHT22;36557;53.572;10.170;2023-11-21T19:39:47;3.80;99.90
50606;DHT22;36557;53.572;10.170;2023-11-21T19:42:14;3.80;99.90
50606;DHT22;36557;53.572;10.170;2023-11-21T19:44:41;3.70;99.90
50606;DHT22;36557;53.572;10.170;2023-11-21T19:47:08;3.60;99.90
50606;DHT22;36557;53.572;10.170;2023-11-21T19:49:33;3.70;99.90
50606;DHT22;36557;53.572;10.170;2023-11-21T19:51:59;3.60;99.90
50606;DHT22;36557;53.572;10.170;2023-11-21T19:54:25;3.60;99.90
